createdAt,value
2018-07-26T00:00:39.293Z,23.30
2018-07-26T00:03:07.752Z,23.20
2018-07-26T00:05:36.176Z,23.20
2018-07-26T00:08:04.666Z,23.20
2018-07-26T00:10:33.148Z,23.30
2018-07-26T00:13:01.559Z,23.30
2018-07-26T00:15:30.068Z,23.20
2018-07-26T00:17:58.500Z,23.10
2018-07-26T00:20:26.980Z,23.10
2018-07-26T00:22:55.399Z,22.90
2018-07-26T00:25:23.825Z,22.80
2018-07-26T00:27:52.257Z,22.80
2018-07-26T00:30:20.720Z,22.80
2018-07-26T00:32:49.224Z,22.90
2018-07-26T00:35:17.707Z,23.00
2018-07-26T00:37:46.143Z,22.90
2018-07-26T00:40:14.572Z,22.80
2018-07-26T00:42:43.021Z,22.60
2018-07-26T00:45:11.484Z,22.60
2018-07-26T00:47:39.916Z,22.60
2018-07-26T00:50:08.380Z,22.50
2018-07-26T00:52:36.869Z,22.30
2018-07-26T00:55:05.493Z,22.20
2018-07-26T00:57:33.956Z,22.30
2018-07-26T01:00:02.414Z,22.30
2018-07-26T01:02:30.866Z,22.50
2018-07-26T01:05:00.999Z,22.50
2018-07-26T01:07:29.421Z,22.30
2018-07-26T01:09:57.905Z,22.40
2018-07-26T01:12:26.346Z,22.40
2018-07-26T01:14:54.768Z,22.40
2018-07-26T01:17:23.240Z,22.40
2018-07-26T01:19:51.728Z,22.30
2018-07-26T01:22:20.223Z,22.50
2018-07-26T01:24:48.672Z,22.30
2018-07-26T01:27:17.153Z,22.20
2018-07-26T01:29:45.638Z,22.20
2018-07-26T01:32:14.052Z,22.20
2018-07-26T01:34:42.510Z,22.40
2018-07-26T01:37:10.956Z,22.40
2018-07-26T01:39:39.372Z,22.30
2018-07-26T01:42:07.941Z,22.30
2018-07-26T01:44:36.484Z,22.20
2018-07-26T01:49:33.140Z,22.20
2018-07-26T01:52:01.995Z,22.20
2018-07-26T01:54:30.420Z,22.20
2018-07-26T01:56:58.846Z,22.20
2018-07-26T01:59:27.308Z,22.20
2018-07-26T02:01:55.925Z,22.20
2018-07-26T02:04:24.425Z,22.50
2018-07-26T02:06:52.999Z,22.50
2018-07-26T02:11:49.632Z,22.10
2018-07-26T02:14:23.393Z,22.20
2018-07-26T02:16:51.952Z,22.20
2018-07-26T02:19:20.492Z,22.20
2018-07-26T02:21:48.920Z,22.10
2018-07-26T02:24:17.353Z,22.00
2018-07-26T02:26:45.777Z,21.90
2018-07-26T02:29:14.213Z,21.90
2018-07-26T02:31:42.700Z,22.00
2018-07-26T02:34:11.176Z,22.10
2018-07-26T02:36:39.653Z,22.10
2018-07-26T02:39:09.049Z,21.90
2018-07-26T02:41:37.753Z,21.80
2018-07-26T02:44:06.185Z,21.70
2018-07-26T02:46:34.657Z,21.70
2018-07-26T02:49:03.179Z,21.60
2018-07-26T02:51:31.657Z,21.60
2018-07-26T02:54:00.105Z,21.70
2018-07-26T02:56:28.589Z,21.70
2018-07-26T02:58:57.704Z,21.80
2018-07-26T03:01:26.128Z,21.70
2018-07-26T03:03:54.569Z,21.60
2018-07-26T03:06:23.028Z,21.50
2018-07-26T03:08:51.444Z,21.50
2018-07-26T03:13:48.081Z,21.60
2018-07-26T03:16:16.512Z,21.50
2018-07-26T03:18:44.997Z,21.40
2018-07-26T03:21:13.492Z,21.40
2018-07-26T03:23:43.758Z,21.40
2018-07-26T03:26:12.212Z,21.40
2018-07-26T03:28:40.969Z,21.30
2018-07-26T03:31:09.694Z,21.40
2018-07-26T03:33:38.136Z,21.40
2018-07-26T03:36:06.585Z,21.40
2018-07-26T03:41:03.153Z,21.30
2018-07-26T03:43:31.664Z,21.30
2018-07-26T03:46:00.061Z,21.20
2018-07-26T03:48:28.508Z,21.20
2018-07-26T03:50:56.931Z,21.20
2018-07-26T03:53:25.356Z,21.20
2018-07-26T03:55:53.793Z,21.20
2018-07-26T03:58:22.248Z,21.10
2018-07-26T04:00:50.781Z,21.00
2018-07-26T04:03:19.307Z,20.90
2018-07-26T04:05:47.750Z,20.90
2018-07-26T04:08:16.212Z,20.90
2018-07-26T04:10:44.684Z,20.80
2018-07-26T04:15:41.256Z,20.90
2018-07-26T04:18:09.712Z,21.00
2018-07-26T04:20:38.187Z,21.10
2018-07-26T04:23:06.697Z,21.20
2018-07-26T04:25:35.238Z,21.20
2018-07-26T04:28:03.689Z,21.30
2018-07-26T04:30:32.165Z,21.30
2018-07-26T04:33:00.608Z,21.30
2018-07-26T04:35:29.032Z,21.30
2018-07-26T04:37:57.500Z,21.40
2018-07-26T04:40:26.026Z,21.40
2018-07-26T04:42:54.476Z,21.60
2018-07-26T04:45:23.321Z,21.60
2018-07-26T04:47:51.934Z,21.70
2018-07-26T04:50:20.408Z,22.00
2018-07-26T04:52:48.854Z,22.50
2018-07-26T04:55:17.288Z,22.60
2018-07-26T04:57:45.751Z,23.10
2018-07-26T05:00:14.209Z,23.40
2018-07-26T05:02:42.728Z,23.90
2018-07-26T05:05:11.178Z,24.40
2018-07-26T05:07:39.592Z,24.50
2018-07-26T05:10:08.116Z,24.30
2018-07-26T05:12:36.680Z,24.40
2018-07-26T05:15:06.840Z,24.40
2018-07-26T05:17:35.352Z,23.90
2018-07-26T05:20:04.716Z,24.00
2018-07-26T05:22:33.201Z,24.20
2018-07-26T05:25:01.904Z,23.80
2018-07-26T05:27:31.228Z,24.90
2018-07-26T05:29:59.680Z,25.10
2018-07-26T05:32:28.273Z,24.70
2018-07-26T05:34:56.721Z,24.80
2018-07-26T05:37:25.185Z,25.50
2018-07-26T05:39:53.615Z,25.10
2018-07-26T05:42:23.008Z,25.50
2018-07-26T05:44:51.432Z,25.80
2018-07-26T05:47:19.912Z,25.90
2018-07-26T05:49:48.332Z,25.00
2018-07-26T05:52:16.786Z,24.30
2018-07-26T05:54:45.212Z,24.60
2018-07-26T05:57:13.677Z,24.80
2018-07-26T05:59:42.108Z,24.80
2018-07-26T06:02:11.800Z,24.50
2018-07-26T06:04:40.268Z,23.90
2018-07-26T06:07:08.825Z,23.60
2018-07-26T06:09:37.293Z,23.70
2018-07-26T06:12:05.746Z,23.60
2018-07-26T06:14:34.176Z,23.60
2018-07-26T06:17:02.675Z,23.60
2018-07-26T06:19:31.108Z,23.60
2018-07-26T06:21:59.520Z,23.70
2018-07-26T06:24:27.955Z,23.80
2018-07-26T06:26:56.388Z,23.90
2018-07-26T06:29:25.341Z,24.10
2018-07-26T06:31:53.789Z,24.30
2018-07-26T06:34:22.237Z,24.50
2018-07-26T06:36:50.658Z,24.40
2018-07-26T06:39:19.154Z,24.60
2018-07-26T06:41:47.608Z,24.20
2018-07-26T06:44:16.320Z,23.90
2018-07-26T06:46:44.768Z,23.90
2018-07-26T06:49:13.261Z,24.40
2018-07-26T06:51:41.778Z,25.10
2018-07-26T06:54:10.266Z,25.60
2018-07-26T06:56:39.012Z,25.10
2018-07-26T06:59:07.465Z,25.00
2018-07-26T07:01:35.928Z,25.60
2018-07-26T07:04:04.585Z,26.60
2018-07-26T07:06:33.033Z,27.50
2018-07-26T07:09:01.481Z,28.00
2018-07-26T07:11:29.952Z,27.70
2018-07-26T07:13:58.412Z,27.90
2018-07-26T07:16:26.894Z,27.50
2018-07-26T07:21:30.097Z,28.00
2018-07-26T07:23:58.525Z,28.60
2018-07-26T07:26:26.988Z,29.70
2018-07-26T07:28:55.420Z,30.10
2018-07-26T07:31:23.859Z,29.60
2018-07-26T07:33:52.272Z,30.20
2018-07-26T07:36:20.721Z,30.30
2018-07-26T07:38:49.152Z,30.60
2018-07-26T07:41:17.580Z,29.80
2018-07-26T07:43:46.053Z,29.30
2018-07-26T07:46:14.553Z,29.40
2018-07-26T07:48:42.992Z,30.50
2018-07-26T07:51:11.472Z,30.30
2018-07-26T07:53:39.880Z,30.60
2018-07-26T07:56:08.305Z,30.80
2018-07-26T08:01:05.098Z,30.50
2018-07-26T08:03:33.522Z,30.60
2018-07-26T08:06:01.986Z,30.30
2018-07-26T08:08:30.417Z,30.50
2018-07-26T08:10:58.872Z,31.70
2018-07-26T08:13:27.304Z,30.80
2018-07-26T08:15:55.765Z,32.00
2018-07-26T08:18:24.220Z,31.90
2018-07-26T08:20:52.692Z,31.30
2018-07-26T08:23:21.113Z,30.70
2018-07-26T08:25:49.545Z,30.70
2018-07-26T08:28:17.973Z,31.30
2018-07-26T08:30:46.392Z,30.50
2018-07-26T08:33:14.861Z,30.90
2018-07-26T08:35:43.290Z,31.90
2018-07-26T08:38:11.813Z,31.40
2018-07-26T08:40:40.288Z,31.50
2018-07-26T08:43:08.744Z,31.80
2018-07-26T08:45:37.261Z,31.70
2018-07-26T08:48:06.105Z,32.20
2018-07-26T08:50:34.496Z,32.50
2018-07-26T08:53:02.956Z,32.60
2018-07-26T08:55:31.408Z,33.10
2018-07-26T08:57:59.833Z,33.60
2018-07-26T09:00:28.277Z,33.00
2018-07-26T09:02:56.768Z,32.50
2018-07-26T09:05:25.216Z,33.50
2018-07-26T09:07:53.674Z,34.40
2018-07-26T09:10:22.129Z,33.40
2018-07-26T09:12:50.576Z,33.20
2018-07-26T09:15:19.056Z,33.30
2018-07-26T09:20:15.600Z,33.00
2018-07-26T09:22:44.053Z,33.20
2018-07-26T09:25:12.525Z,33.60
2018-07-26T09:27:40.968Z,33.50
2018-07-26T09:30:11.034Z,34.00
2018-07-26T09:32:39.535Z,34.30
2018-07-26T09:35:08.796Z,34.30
2018-07-26T09:37:37.245Z,34.20
2018-07-26T09:40:05.828Z,35.30
2018-07-26T09:42:34.278Z,35.00
2018-07-26T09:45:02.717Z,34.80
2018-07-26T09:47:31.158Z,33.90
2018-07-26T09:49:59.588Z,34.00
2018-07-26T09:52:28.009Z,34.80
2018-07-26T09:54:56.520Z,34.90
2018-07-26T09:57:24.905Z,34.60
2018-07-26T09:59:53.334Z,34.90
2018-07-26T10:04:49.910Z,34.20
2018-07-26T10:07:18.373Z,35.10
2018-07-26T10:09:46.813Z,34.60
2018-07-26T10:12:15.451Z,34.30
2018-07-26T10:14:43.938Z,34.40
2018-07-26T10:17:13.048Z,34.50
2018-07-26T10:19:41.480Z,34.60
2018-07-26T10:22:09.940Z,34.60
2018-07-26T10:24:38.368Z,34.00
2018-07-26T10:27:06.798Z,35.30
2018-07-26T10:29:35.269Z,35.00
2018-07-26T10:32:03.745Z,34.60
2018-07-26T10:34:32.196Z,34.80
2018-07-26T10:37:00.636Z,35.40
2018-07-26T10:39:29.073Z,34.80
2018-07-26T10:41:57.505Z,35.30
2018-07-26T10:44:25.978Z,35.20
2018-07-26T10:46:54.459Z,34.60
2018-07-26T10:49:22.874Z,34.70
2018-07-26T10:51:51.382Z,34.70
2018-07-26T10:54:19.828Z,34.30
2018-07-26T10:56:48.284Z,34.30
2018-07-26T10:59:16.725Z,34.50
2018-07-26T11:01:45.197Z,34.20
2018-07-26T11:04:13.637Z,34.90
2018-07-26T11:06:42.074Z,36.00
2018-07-26T11:09:10.956Z,35.30
2018-07-26T11:11:39.459Z,36.10
2018-07-26T11:14:08.292Z,35.20
2018-07-26T11:16:36.927Z,35.20
2018-07-26T11:19:05.390Z,34.10
2018-07-26T11:21:33.768Z,33.80
2018-07-26T11:24:02.242Z,34.00
2018-07-26T11:26:30.693Z,34.30
2018-07-26T11:28:59.108Z,34.00
2018-07-26T11:31:27.564Z,34.00
2018-07-26T11:33:56.002Z,33.90
2018-07-26T11:36:24.426Z,34.00
2018-07-26T11:38:52.876Z,34.10
2018-07-26T11:41:21.320Z,34.40
2018-07-26T11:43:49.754Z,34.50
2018-07-26T11:46:18.208Z,35.40
2018-07-26T11:48:46.636Z,35.90
2018-07-26T11:51:15.069Z,35.70
2018-07-26T11:53:43.552Z,35.40
2018-07-26T11:56:12.009Z,36.40
2018-07-26T11:58:40.456Z,36.00
2018-07-26T12:01:09.033Z,35.70
2018-07-26T12:06:05.632Z,35.60
2018-07-26T12:08:34.102Z,35.60
2018-07-26T12:11:02.539Z,35.20
2018-07-26T12:13:30.992Z,35.40
2018-07-26T12:15:59.484Z,34.60
2018-07-26T12:18:27.913Z,34.80
2018-07-26T12:20:56.494Z,35.70
2018-07-26T12:23:24.928Z,35.70
2018-07-26T12:25:53.372Z,35.10
2018-07-26T12:28:21.852Z,35.40
2018-07-26T12:30:50.280Z,35.40
2018-07-26T12:33:18.750Z,35.30
2018-07-26T12:38:15.290Z,34.90
2018-07-26T12:40:43.737Z,34.80
2018-07-26T12:43:12.171Z,34.80
2018-07-26T12:45:40.664Z,34.90
2018-07-26T12:48:09.088Z,34.90
2018-07-26T12:50:37.540Z,34.70
2018-07-26T12:53:05.992Z,34.60
2018-07-26T12:55:34.452Z,34.80
2018-07-26T12:58:02.900Z,35.10
2018-07-26T13:00:31.344Z,34.90
2018-07-26T13:02:59.805Z,34.50
2018-07-26T13:05:28.212Z,34.60
2018-07-26T13:07:56.634Z,34.60
2018-07-26T13:10:25.085Z,34.90
2018-07-26T13:12:53.556Z,35.60
2018-07-26T13:15:21.996Z,36.40
2018-07-26T13:17:50.444Z,37.00
2018-07-26T13:20:18.984Z,37.90
2018-07-26T13:22:47.411Z,37.30
2018-07-26T13:25:15.829Z,36.60
2018-07-26T13:27:44.301Z,36.60
2018-07-26T13:30:12.781Z,36.70
2018-07-26T13:32:41.249Z,36.70
2018-07-26T13:35:09.697Z,35.90
2018-07-26T13:37:38.240Z,35.90
2018-07-26T13:40:06.740Z,36.20
2018-07-26T13:42:35.933Z,36.10
2018-07-26T13:45:04.885Z,35.20
2018-07-26T13:47:33.319Z,34.00
2018-07-26T13:50:01.740Z,34.30
2018-07-26T13:52:30.204Z,35.10
2018-07-26T13:54:58.620Z,35.80
2018-07-26T13:57:27.280Z,35.40
2018-07-26T13:59:56.084Z,35.60
2018-07-26T14:02:24.510Z,35.40
2018-07-26T14:04:53.013Z,35.00
2018-07-26T14:07:21.565Z,34.90
2018-07-26T14:09:50.090Z,34.70
2018-07-26T14:12:18.448Z,34.50
2018-07-26T14:14:46.894Z,34.50
2018-07-26T14:17:15.400Z,34.30
2018-07-26T14:19:43.856Z,34.40
2018-07-26T14:22:12.293Z,34.50
2018-07-26T14:27:09.141Z,34.60
2018-07-26T14:29:37.614Z,35.10
2018-07-26T14:32:06.096Z,34.70
2018-07-26T14:34:34.524Z,34.20
2018-07-26T14:37:03.000Z,34.20
2018-07-26T14:39:31.454Z,34.50
2018-07-26T14:41:59.929Z,34.30
2018-07-26T14:44:28.573Z,34.20
2018-07-26T14:46:57.037Z,34.50
2018-07-26T14:49:25.470Z,34.20
2018-07-26T14:51:54.016Z,34.20
2018-07-26T14:54:22.426Z,33.00
2018-07-26T14:56:50.865Z,30.90
2018-07-26T14:59:19.312Z,30.20
2018-07-26T15:01:47.768Z,30.20
2018-07-26T15:04:16.205Z,30.20
2018-07-26T15:06:44.652Z,30.20
2018-07-26T15:09:13.091Z,30.00
2018-07-26T15:11:41.597Z,30.00
2018-07-26T15:14:10.830Z,30.10
2018-07-26T15:16:39.256Z,30.10
2018-07-26T15:21:36.080Z,30.10
2018-07-26T15:24:04.611Z,30.20
2018-07-26T15:26:33.140Z,30.40
2018-07-26T15:29:01.565Z,30.60
2018-07-26T15:31:29.976Z,31.00
2018-07-26T15:33:58.505Z,31.30
2018-07-26T15:38:55.424Z,31.40
2018-07-26T15:41:24.490Z,31.80
2018-07-26T15:43:53.094Z,31.90
2018-07-26T15:46:21.785Z,32.00
2018-07-26T15:48:50.284Z,32.00
2018-07-26T15:51:18.786Z,31.90
2018-07-26T15:53:47.232Z,31.90
2018-07-26T15:56:15.770Z,31.80
2018-07-26T15:58:44.329Z,31.90
2018-07-26T16:01:12.763Z,32.00
2018-07-26T16:03:41.237Z,32.10
2018-07-26T16:06:09.689Z,32.30
2018-07-26T16:08:38.887Z,32.20
2018-07-26T16:11:07.314Z,32.30
2018-07-26T16:13:35.757Z,32.40
2018-07-26T16:16:04.328Z,32.30
2018-07-26T16:18:32.760Z,32.00
2018-07-26T16:21:01.213Z,32.10
2018-07-26T16:23:29.630Z,31.90
2018-07-26T16:25:58.085Z,32.00
2018-07-26T16:28:26.528Z,31.90
2018-07-26T16:30:54.997Z,31.90
2018-07-26T16:33:23.577Z,32.30
2018-07-26T16:35:52.064Z,32.50
2018-07-26T16:38:20.545Z,32.30
2018-07-26T16:40:48.966Z,31.50
2018-07-26T16:43:17.436Z,31.40
2018-07-26T16:45:46.253Z,31.40
2018-07-26T16:48:14.694Z,31.40
2018-07-26T16:50:43.161Z,31.70
2018-07-26T16:53:11.960Z,31.60
2018-07-26T16:55:40.496Z,31.70
2018-07-26T16:58:09.010Z,31.80
2018-07-26T17:00:37.494Z,31.70
2018-07-26T17:03:06.033Z,32.00
2018-07-26T17:05:34.529Z,32.00
2018-07-26T17:08:02.956Z,31.90
2018-07-26T17:10:31.429Z,31.80
2018-07-26T17:12:59.900Z,31.80
2018-07-26T17:15:28.333Z,31.90
2018-07-26T17:17:56.800Z,32.00
2018-07-26T17:20:25.248Z,32.40
2018-07-26T17:22:53.713Z,32.20
2018-07-26T17:25:25.996Z,32.10
2018-07-26T17:27:55.612Z,32.10
2018-07-26T17:30:24.119Z,32.10
2018-07-26T17:32:52.560Z,32.50
2018-07-26T17:35:21.023Z,32.70
2018-07-26T17:37:49.500Z,32.80
2018-07-26T17:40:17.965Z,32.10
2018-07-26T17:42:46.519Z,31.80
2018-07-26T17:45:15.065Z,31.80
2018-07-26T17:47:43.545Z,31.80
2018-07-26T17:50:12.137Z,31.90
2018-07-26T17:52:41.486Z,31.70
2018-07-26T17:55:16.507Z,31.70
2018-07-26T17:57:44.929Z,31.70
2018-07-26T18:00:19.093Z,31.60
2018-07-26T18:02:47.669Z,31.60
2018-07-26T18:05:16.890Z,31.70
2018-07-26T18:07:51.997Z,31.70
2018-07-26T18:10:20.622Z,31.60
2018-07-26T18:12:49.190Z,31.50
2018-07-26T18:17:47.511Z,31.50
2018-07-26T18:20:16.796Z,31.40
2018-07-26T18:22:45.283Z,31.20
2018-07-26T18:25:14.506Z,31.10
2018-07-26T18:27:45.564Z,31.20
2018-07-26T18:30:14.321Z,31.10
2018-07-26T18:32:43.493Z,30.90
2018-07-26T18:35:12.171Z,31.00
2018-07-26T18:37:40.652Z,31.00
2018-07-26T18:40:09.798Z,31.20
2018-07-26T18:42:38.321Z,31.50
2018-07-26T18:45:08.762Z,31.40
2018-07-26T18:47:37.761Z,31.30
2018-07-26T18:50:07.469Z,31.20
2018-07-26T18:52:36.755Z,31.40
2018-07-26T18:55:08.423Z,31.30
2018-07-26T18:57:37.774Z,30.80
2018-07-26T19:00:08.815Z,31.00
2018-07-26T19:02:37.434Z,30.90
2018-07-26T19:05:06.373Z,30.80
2018-07-26T19:07:35.437Z,30.60
2018-07-26T19:10:05.131Z,30.60
2018-07-26T19:12:40.103Z,30.40
2018-07-26T19:15:11.730Z,30.20
2018-07-26T19:17:40.385Z,30.20
2018-07-26T19:20:10.687Z,30.10
2018-07-26T19:22:39.664Z,29.90
2018-07-26T19:25:09.397Z,29.80
2018-07-26T19:27:38.224Z,29.70
2018-07-26T19:30:09.212Z,29.70
2018-07-26T19:32:38.063Z,29.60
2018-07-26T19:35:06.654Z,29.60
2018-07-26T19:46:15.102Z,29.10
2018-07-26T19:48:43.550Z,29.10
2018-07-26T19:51:12.026Z,29.00
2018-07-26T19:53:40.508Z,29.10
2018-07-26T19:56:08.966Z,29.00
2018-07-26T19:58:37.417Z,28.70
2018-07-26T20:01:05.969Z,28.90
2018-07-26T20:03:34.455Z,29.00
2018-07-26T20:06:02.929Z,29.00
2018-07-26T20:08:31.357Z,28.70
2018-07-26T20:10:59.851Z,28.50
2018-07-26T20:13:28.294Z,28.40
2018-07-26T20:15:56.782Z,28.30
2018-07-26T20:18:25.238Z,28.20
2018-07-26T20:20:53.713Z,28.30
2018-07-26T20:23:22.184Z,28.20
2018-07-26T20:25:50.753Z,28.10
2018-07-26T20:28:19.274Z,28.10
2018-07-26T20:30:47.728Z,28.10
2018-07-26T20:33:16.179Z,28.00
2018-07-26T20:35:44.657Z,28.00
2018-07-26T20:38:13.181Z,28.00
2018-07-26T20:40:41.617Z,28.00
2018-07-26T20:43:10.096Z,27.90
2018-07-26T20:45:38.584Z,27.70
2018-07-26T20:48:07.085Z,27.60
2018-07-26T20:50:35.597Z,27.50
2018-07-26T20:53:04.068Z,27.40
2018-07-26T20:55:32.646Z,27.50
2018-07-26T20:58:01.083Z,27.40
2018-07-26T21:02:57.661Z,27.30
2018-07-26T21:05:26.129Z,27.20
2018-07-26T21:07:55.227Z,27.00
2018-07-26T21:10:23.790Z,26.80
2018-07-26T21:12:52.224Z,26.70
2018-07-26T21:15:20.664Z,26.60
2018-07-26T21:17:49.105Z,26.60
2018-07-26T21:20:17.560Z,26.60
2018-07-26T21:22:46.025Z,26.30
2018-07-26T21:25:14.490Z,26.20
2018-07-26T21:30:12.073Z,26.10
2018-07-26T21:32:41.025Z,26.10
2018-07-26T21:35:09.512Z,26.10
2018-07-26T21:37:38.504Z,25.80
2018-07-26T21:40:07.801Z,25.70
2018-07-26T21:42:36.581Z,25.80
2018-07-26T21:45:05.752Z,25.90
2018-07-26T21:47:36.218Z,25.70
2018-07-26T21:50:04.881Z,25.50
2018-07-26T21:52:33.497Z,25.50
2018-07-26T21:55:02.316Z,25.50
2018-07-26T21:57:30.812Z,25.50
2018-07-26T22:00:00.005Z,25.50
2018-07-26T22:02:28.654Z,25.50
2018-07-26T22:04:57.159Z,25.50
2018-07-26T22:07:25.668Z,25.30
2018-07-26T22:09:54.207Z,25.20
2018-07-26T22:12:23.337Z,25.30
2018-07-26T22:14:51.805Z,25.30
2018-07-26T22:17:20.304Z,25.20
2018-07-26T22:19:48.769Z,25.10
2018-07-26T22:22:18.061Z,25.10
2018-07-26T22:24:46.584Z,25.10
2018-07-26T22:29:43.833Z,25.20
2018-07-26T22:32:12.335Z,25.20
2018-07-26T22:34:40.828Z,25.20
2018-07-26T22:37:09.349Z,25.40
2018-07-26T22:39:37.844Z,25.30
2018-07-26T22:42:06.337Z,25.40
2018-07-26T22:44:34.889Z,25.30
2018-07-26T22:47:03.460Z,25.20
2018-07-26T22:49:31.953Z,25.20
2018-07-26T22:52:01.977Z,25.10
2018-07-26T22:54:31.434Z,25.10
2018-07-26T22:56:59.896Z,25.10
2018-07-26T22:59:28.368Z,25.00
2018-07-26T23:01:56.860Z,25.00
2018-07-26T23:04:25.355Z,24.90
2018-07-26T23:06:53.962Z,24.80
2018-07-26T23:09:22.436Z,24.70
2018-07-26T23:11:50.919Z,24.70
2018-07-26T23:14:19.357Z,24.70
2018-07-26T23:16:47.884Z,24.60
2018-07-26T23:19:16.346Z,24.70
2018-07-26T23:21:44.822Z,24.80
2018-07-26T23:24:13.321Z,24.70
2018-07-26T23:26:41.773Z,24.60
2018-07-26T23:29:10.248Z,24.70
2018-07-26T23:31:38.708Z,24.50
2018-07-26T23:34:07.184Z,24.40
2018-07-26T23:36:35.740Z,24.40
2018-07-26T23:39:06.341Z,24.10
2018-07-26T23:41:35.881Z,24.10
2018-07-26T23:44:05.162Z,23.90
2018-07-26T23:46:33.619Z,24.00
2018-07-26T23:49:02.116Z,24.00
2018-07-26T23:51:30.981Z,23.90
2018-07-26T23:53:59.886Z,23.70
2018-07-26T23:56:28.363Z,23.70
2018-07-26T23:58:56.844Z,23.70
